sensor_id;sensor_type;location;lat;lon;timestamp;P1;durP1;ratioP1;P2;durP2;ratioP2
7426;SDS011;3755;59.316;18.092;2024-03-22T00:00:31;8.07;;;4.63;;
7426;SDS011;3755;59.316;18.092;2024-03-22T00:02:57;8.00;;;5.40;;
7426;SDS011;3755;59.316;18.092;2024-03-22T00:05:24;7.90;;;4.67;;
7426;SDS011;3755;59.316;18.092;2024-03-22T00:07:50;7.47;;;5.10;;
7426;SDS011;3755;59.316;18.092;2024-03-22T00:10:18;8.00;;;5.23;;
7426;SDS011;3755;59.316;18.092;2024-03-22T00:12:44;7.93;;;5.20;;
7426;SDS011;3755;59.316;18.092;2024-03-22T00:15:12;8.77;;;4.83;;
7426;SDS011;3755;59.316;18.092;2024-03-22T00:17:38;7.23;;;4.67;;
7426;SDS011;3755;59.316;18.092;2024-03-22T00:20:05;9.33;;;5.03;;
7426;SDS011;3755;59.316;18.092;2024-03-22T00:22:32;9.17;;;5.03;;
7426;SDS011;3755;59.316;18.092;2024-03-22T00:24:59;8.13;;;4.50;;
7426;SDS011;3755;59.316;18.092;2024-03-22T00:27:26;9.80;;;5.27;;
7426;SDS011;3755;59.316;18.092;2024-03-22T00:29:54;11.07;;;4.90;;
7426;SDS011;3755;59.316;18.092;2024-03-22T00:32:20;8.70;;;4.93;;
7426;SDS011;3755;59.316;18.092;2024-03-22T00:34:47;8.37;;;4.90;;
7426;SDS011;3755;59.316;18.092;2024-03-22T00:37:13;6.37;;;4.43;;
7426;SDS011;3755;59.316;18.092;2024-03-22T00:39:40;7.03;;;4.70;;
7426;SDS011;3755;59.316;18.092;2024-03-22T00:42:06;4.73;;;3.27;;
7426;SDS011;3755;59.316;18.092;2024-03-22T00:44:34;6.73;;;4.50;;
7426;SDS011;3755;59.316;18.092;2024-03-22T00:47:00;7.20;;;4.63;;
7426;SDS011;3755;59.316;18.092;2024-03-22T00:49:28;5.77;;;3.53;;
7426;SDS011;3755;59.316;18.092;2024-03-22T00:51:54;7.73;;;4.83;;
7426;SDS011;3755;59.316;18.092;2024-03-22T00:54:21;6.73;;;4.33;;
7426;SDS011;3755;59.316;18.092;2024-03-22T00:56:47;8.87;;;4.83;;
7426;SDS011;3755;59.316;18.092;2024-03-22T00:59:14;6.63;;;4.10;;
7426;SDS011;3755;59.316;18.092;2024-03-22T01:01:43;7.10;;;4.67;;
7426;SDS011;3755;59.316;18.092;2024-03-22T01:04:10;6.67;;;3.70;;
7426;SDS011;3755;59.316;18.092;2024-03-22T01:06:36;7.80;;;4.40;;
7426;SDS011;3755;59.316;18.092;2024-03-22T01:09:05;6.90;;;4.27;;
7426;SDS011;3755;59.316;18.092;2024-03-22T01:11:31;9.57;;;5.17;;
7426;SDS011;3755;59.316;18.092;2024-03-22T01:13:58;10.83;;;4.70;;
7426;SDS011;3755;59.316;18.092;2024-03-22T01:16:25;6.50;;;4.27;;
7426;SDS011;3755;59.316;18.092;2024-03-22T01:18:53;8.00;;;4.13;;
7426;SDS011;3755;59.316;18.092;2024-03-22T01:21:19;9.87;;;4.97;;
7426;SDS011;3755;59.316;18.092;2024-03-22T01:23:50;9.93;;;4.80;;
7426;SDS011;3755;59.316;18.092;2024-03-22T01:26:16;9.63;;;4.30;;
7426;SDS011;3755;59.316;18.092;2024-03-22T01:28:43;12.70;;;5.27;;
7426;SDS011;3755;59.316;18.092;2024-03-22T01:31:09;8.27;;;4.77;;
7426;SDS011;3755;59.316;18.092;2024-03-22T01:33:36;9.90;;;5.03;;
7426;SDS011;3755;59.316;18.092;2024-03-22T01:36:04;9.13;;;4.70;;
7426;SDS011;3755;59.316;18.092;2024-03-22T01:38:31;8.57;;;4.03;;
7426;SDS011;3755;59.316;18.092;2024-03-22T01:40:57;9.27;;;4.27;;
7426;SDS011;3755;59.316;18.092;2024-03-22T01:43:24;9.23;;;4.43;;
7426;SDS011;3755;59.316;18.092;2024-03-22T01:45:50;8.87;;;4.27;;
7426;SDS011;3755;59.316;18.092;2024-03-22T01:48:17;7.33;;;2.93;;
7426;SDS011;3755;59.316;18.092;2024-03-22T01:50:44;6.27;;;4.03;;
7426;SDS011;3755;59.316;18.092;2024-03-22T01:53:12;7.60;;;3.70;;
7426;SDS011;3755;59.316;18.092;2024-03-22T01:55:38;7.27;;;3.57;;
7426;SDS011;3755;59.316;18.092;2024-03-22T01:58:06;5.97;;;3.70;;
7426;SDS011;3755;59.316;18.092;2024-03-22T02:00:32;6.03;;;3.70;;
7426;SDS011;3755;59.316;18.092;2024-03-22T02:02:59;5.07;;;3.07;;
7426;SDS011;3755;59.316;18.092;2024-03-22T02:05:25;7.97;;;3.30;;
7426;SDS011;3755;59.316;18.092;2024-03-22T02:07:52;6.07;;;3.57;;
7426;SDS011;3755;59.316;18.092;2024-03-22T02:10:20;6.90;;;3.30;;
7426;SDS011;3755;59.316;18.092;2024-03-22T02:12:47;6.97;;;3.23;;
7426;SDS011;3755;59.316;18.092;2024-03-22T02:15:13;6.50;;;3.37;;
7426;SDS011;3755;59.316;18.092;2024-03-22T02:17:40;5.13;;;3.10;;
7426;SDS011;3755;59.316;18.092;2024-03-22T02:20:07;4.43;;;2.90;;
7426;SDS011;3755;59.316;18.092;2024-03-22T02:22:35;4.93;;;3.07;;
7426;SDS011;3755;59.316;18.092;2024-03-22T02:25:03;5.93;;;2.83;;
7426;SDS011;3755;59.316;18.092;2024-03-22T02:27:30;4.23;;;3.33;;
7426;SDS011;3755;59.316;18.092;2024-03-22T02:29:56;4.70;;;3.40;;
7426;SDS011;3755;59.316;18.092;2024-03-22T02:32:23;4.83;;;2.70;;
7426;SDS011;3755;59.316;18.092;2024-03-22T02:34:49;5.07;;;2.57;;
7426;SDS011;3755;59.316;18.092;2024-03-22T02:37:16;7.10;;;3.33;;
7426;SDS011;3755;59.316;18.092;2024-03-22T02:39:42;4.90;;;3.13;;
7426;SDS011;3755;59.316;18.092;2024-03-22T02:42:11;4.93;;;3.17;;
7426;SDS011;3755;59.316;18.092;2024-03-22T02:44:37;7.83;;;3.77;;
7426;SDS011;3755;59.316;18.092;2024-03-22T02:47:07;5.67;;;3.33;;
7426;SDS011;3755;59.316;18.092;2024-03-22T02:49:34;3.93;;;3.03;;
7426;SDS011;3755;59.316;18.092;2024-03-22T02:52:01;6.20;;;3.27;;
7426;SDS011;3755;59.316;18.092;2024-03-22T02:54:27;5.40;;;2.93;;
7426;SDS011;3755;59.316;18.092;2024-03-22T02:56:54;7.43;;;3.70;;
7426;SDS011;3755;59.316;18.092;2024-03-22T02:59:21;6.80;;;3.97;;
7426;SDS011;3755;59.316;18.092;2024-03-22T03:01:51;5.83;;;3.30;;
7426;SDS011;3755;59.316;18.092;2024-03-22T03:04:17;5.07;;;3.17;;
7426;SDS011;3755;59.316;18.092;2024-03-22T03:06:44;4.73;;;3.30;;
7426;SDS011;3755;59.316;18.092;2024-03-22T03:09:10;5.70;;;3.40;;
7426;SDS011;3755;59.316;18.092;2024-03-22T03:11:37;5.17;;;3.10;;
7426;SDS011;3755;59.316;18.092;2024-03-22T03:14:04;5.40;;;3.50;;
7426;SDS011;3755;59.316;18.092;2024-03-22T03:16:32;5.87;;;3.30;;
7426;SDS011;3755;59.316;18.092;2024-03-22T03:18:58;4.23;;;2.50;;
7426;SDS011;3755;59.316;18.092;2024-03-22T03:21:25;4.30;;;3.17;;
7426;SDS011;3755;59.316;18.092;2024-03-22T03:23:52;3.07;;;2.60;;
7426;SDS011;3755;59.316;18.092;2024-03-22T03:26:18;5.20;;;3.03;;
7426;SDS011;3755;59.316;18.092;2024-03-22T03:28:45;5.73;;;3.20;;
7426;SDS011;3755;59.316;18.092;2024-03-22T03:31:12;4.43;;;2.83;;
7426;SDS011;3755;59.316;18.092;2024-03-22T03:33:39;4.80;;;2.77;;
7426;SDS011;3755;59.316;18.092;2024-03-22T03:36:06;4.03;;;2.80;;
7426;SDS011;3755;59.316;18.092;2024-03-22T03:38:32;5.53;;;2.60;;
7426;SDS011;3755;59.316;18.092;2024-03-22T03:41:02;5.17;;;3.07;;
7426;SDS011;3755;59.316;18.092;2024-03-22T03:43:28;4.33;;;2.80;;
7426;SDS011;3755;59.316;18.092;2024-03-22T03:45:55;4.10;;;2.90;;
7426;SDS011;3755;59.316;18.092;2024-03-22T03:48:21;4.97;;;3.13;;
7426;SDS011;3755;59.316;18.092;2024-03-22T03:50:53;4.23;;;3.07;;
7426;SDS011;3755;59.316;18.092;2024-03-22T03:53:24;4.93;;;3.00;;
7426;SDS011;3755;59.316;18.092;2024-03-22T03:55:51;5.60;;;3.03;;
7426;SDS011;3755;59.316;18.092;2024-03-22T03:58:17;3.73;;;2.77;;
7426;SDS011;3755;59.316;18.092;2024-03-22T04:00:44;3.50;;;2.67;;
7426;SDS011;3755;59.316;18.092;2024-03-22T04:03:10;3.83;;;2.70;;
7426;SDS011;3755;59.316;18.092;2024-03-22T04:05:37;4.67;;;3.17;;
7426;SDS011;3755;59.316;18.092;2024-03-22T04:08:05;4.00;;;2.97;;
7426;SDS011;3755;59.316;18.092;2024-03-22T04:10:32;3.33;;;2.33;;
7426;SDS011;3755;59.316;18.092;2024-03-22T04:12:58;6.37;;;3.40;;
7426;SDS011;3755;59.316;18.092;2024-03-22T04:15:25;4.27;;;3.00;;
7426;SDS011;3755;59.316;18.092;2024-03-22T04:17:51;4.63;;;2.73;;
7426;SDS011;3755;59.316;18.092;2024-03-22T04:20:18;5.80;;;3.07;;
7426;SDS011;3755;59.316;18.092;2024-03-22T04:22:44;5.67;;;2.63;;
7426;SDS011;3755;59.316;18.092;2024-03-22T04:25:12;4.07;;;3.13;;
7426;SDS011;3755;59.316;18.092;2024-03-22T04:27:39;5.73;;;2.90;;
7426;SDS011;3755;59.316;18.092;2024-03-22T04:30:07;5.57;;;3.00;;
7426;SDS011;3755;59.316;18.092;2024-03-22T04:32:35;5.40;;;2.80;;
7426;SDS011;3755;59.316;18.092;2024-03-22T04:35:02;4.33;;;2.70;;
7426;SDS011;3755;59.316;18.092;2024-03-22T04:37:29;3.80;;;2.73;;
7426;SDS011;3755;59.316;18.092;2024-03-22T04:39:56;3.13;;;2.20;;
7426;SDS011;3755;59.316;18.092;2024-03-22T04:42:25;3.70;;;2.70;;
7426;SDS011;3755;59.316;18.092;2024-03-22T04:44:51;5.37;;;2.90;;
7426;SDS011;3755;59.316;18.092;2024-03-22T04:47:18;3.37;;;2.50;;
7426;SDS011;3755;59.316;18.092;2024-03-22T04:49:44;4.87;;;3.07;;
7426;SDS011;3755;59.316;18.092;2024-03-22T04:52:11;6.13;;;2.80;;
7426;SDS011;3755;59.316;18.092;2024-03-22T04:54:38;4.70;;;2.80;;
7426;SDS011;3755;59.316;18.092;2024-03-22T04:57:04;5.03;;;3.27;;
7426;SDS011;3755;59.316;18.092;2024-03-22T04:59:32;4.20;;;2.70;;
7426;SDS011;3755;59.316;18.092;2024-03-22T05:01:59;4.03;;;2.80;;
7426;SDS011;3755;59.316;18.092;2024-03-22T05:04:26;3.83;;;2.80;;
7426;SDS011;3755;59.316;18.092;2024-03-22T05:06:52;4.57;;;2.73;;
7426;SDS011;3755;59.316;18.092;2024-03-22T05:09:19;5.10;;;3.30;;
7426;SDS011;3755;59.316;18.092;2024-03-22T05:11:45;4.60;;;2.67;;
7426;SDS011;3755;59.316;18.092;2024-03-22T05:14:15;4.10;;;3.00;;
7426;SDS011;3755;59.316;18.092;2024-03-22T05:16:43;5.00;;;3.23;;
7426;SDS011;3755;59.316;18.092;2024-03-22T05:19:10;2.97;;;2.20;;
7426;SDS011;3755;59.316;18.092;2024-03-22T05:21:36;11.60;;;3.70;;
7426;SDS011;3755;59.316;18.092;2024-03-22T05:24:03;6.10;;;3.50;;
7426;SDS011;3755;59.316;18.092;2024-03-22T05:26:29;6.97;;;3.47;;
7426;SDS011;3755;59.316;18.092;2024-03-22T05:29:01;5.77;;;3.50;;
7426;SDS011;3755;59.316;18.092;2024-03-22T05:31:27;3.73;;;3.33;;
7426;SDS011;3755;59.316;18.092;2024-03-22T05:33:58;7.30;;;3.70;;
7426;SDS011;3755;59.316;18.092;2024-03-22T05:36:24;8.90;;;4.07;;
7426;SDS011;3755;59.316;18.092;2024-03-22T05:38:52;7.50;;;4.07;;
7426;SDS011;3755;59.316;18.092;2024-03-22T05:41:18;8.43;;;3.27;;
7426;SDS011;3755;59.316;18.092;2024-03-22T05:43:45;4.73;;;3.33;;
7426;SDS011;3755;59.316;18.092;2024-03-22T05:46:11;5.13;;;3.53;;
7426;SDS011;3755;59.316;18.092;2024-03-22T05:48:39;3.07;;;2.20;;
7426;SDS011;3755;59.316;18.092;2024-03-22T05:51:07;7.27;;;3.20;;
7426;SDS011;3755;59.316;18.092;2024-03-22T05:53:34;4.23;;;3.17;;
7426;SDS011;3755;59.316;18.092;2024-03-22T05:56:00;5.50;;;3.40;;
7426;SDS011;3755;59.316;18.092;2024-03-22T05:58:27;5.33;;;3.70;;
7426;SDS011;3755;59.316;18.092;2024-03-22T06:00:53;7.30;;;3.50;;
7426;SDS011;3755;59.316;18.092;2024-03-22T06:03:21;6.10;;;3.37;;
7426;SDS011;3755;59.316;18.092;2024-03-22T06:05:47;5.13;;;3.33;;
7426;SDS011;3755;59.316;18.092;2024-03-22T06:08:16;7.20;;;3.50;;
7426;SDS011;3755;59.316;18.092;2024-03-22T06:10:44;5.13;;;3.00;;
7426;SDS011;3755;59.316;18.092;2024-03-22T06:13:11;6.50;;;2.97;;
7426;SDS011;3755;59.316;18.092;2024-03-22T06:15:38;4.10;;;2.50;;
7426;SDS011;3755;59.316;18.092;2024-03-22T06:18:09;5.60;;;3.10;;
7426;SDS011;3755;59.316;18.092;2024-03-22T06:20:36;7.00;;;3.33;;
7426;SDS011;3755;59.316;18.092;2024-03-22T06:23:03;5.03;;;3.50;;
7426;SDS011;3755;59.316;18.092;2024-03-22T06:25:31;4.70;;;3.17;;
7426;SDS011;3755;59.316;18.092;2024-03-22T06:27:58;7.07;;;3.30;;
7426;SDS011;3755;59.316;18.092;2024-03-22T06:30:24;5.43;;;3.40;;
7426;SDS011;3755;59.316;18.092;2024-03-22T06:32:51;3.77;;;2.90;;
7426;SDS011;3755;59.316;18.092;2024-03-22T06:35:17;3.27;;;2.60;;
7426;SDS011;3755;59.316;18.092;2024-03-22T06:37:45;4.27;;;2.77;;
7426;SDS011;3755;59.316;18.092;2024-03-22T06:40:11;4.87;;;2.90;;
7426;SDS011;3755;59.316;18.092;2024-03-22T06:42:40;5.07;;;3.10;;
7426;SDS011;3755;59.316;18.092;2024-03-22T06:45:07;6.77;;;3.47;;
7426;SDS011;3755;59.316;18.092;2024-03-22T06:47:34;3.57;;;2.13;;
7426;SDS011;3755;59.316;18.092;2024-03-22T06:50:00;7.37;;;3.20;;
7426;SDS011;3755;59.316;18.092;2024-03-22T06:52:31;6.10;;;3.07;;
7426;SDS011;3755;59.316;18.092;2024-03-22T06:54:57;4.93;;;3.03;;
7426;SDS011;3755;59.316;18.092;2024-03-22T06:57:26;4.90;;;3.07;;
7426;SDS011;3755;59.316;18.092;2024-03-22T06:59:54;6.37;;;3.13;;
7426;SDS011;3755;59.316;18.092;2024-03-22T07:02:21;3.73;;;2.77;;
7426;SDS011;3755;59.316;18.092;2024-03-22T07:04:47;4.00;;;3.20;;
7426;SDS011;3755;59.316;18.092;2024-03-22T07:07:15;6.07;;;3.17;;
7426;SDS011;3755;59.316;18.092;2024-03-22T07:09:41;6.73;;;3.63;;
7426;SDS011;3755;59.316;18.092;2024-03-22T07:12:09;5.30;;;2.97;;
7426;SDS011;3755;59.316;18.092;2024-03-22T07:14:35;5.77;;;3.60;;
7426;SDS011;3755;59.316;18.092;2024-03-22T07:17:04;4.03;;;2.97;;
7426;SDS011;3755;59.316;18.092;2024-03-22T07:19:31;4.30;;;2.63;;
7426;SDS011;3755;59.316;18.092;2024-03-22T07:22:00;3.90;;;2.77;;
7426;SDS011;3755;59.316;18.092;2024-03-22T07:24:26;4.40;;;2.90;;
7426;SDS011;3755;59.316;18.092;2024-03-22T07:26:53;3.73;;;2.67;;
7426;SDS011;3755;59.316;18.092;2024-03-22T07:29:21;4.93;;;3.23;;
7426;SDS011;3755;59.316;18.092;2024-03-22T07:31:48;7.27;;;3.10;;
7426;SDS011;3755;59.316;18.092;2024-03-22T07:34:15;6.37;;;2.37;;
7426;SDS011;3755;59.316;18.092;2024-03-22T07:36:43;6.87;;;3.50;;
7426;SDS011;3755;59.316;18.092;2024-03-22T07:39:09;4.83;;;3.07;;
7426;SDS011;3755;59.316;18.092;2024-03-22T07:41:36;4.30;;;2.97;;
7426;SDS011;3755;59.316;18.092;2024-03-22T07:44:02;4.07;;;3.10;;
7426;SDS011;3755;59.316;18.092;2024-03-22T07:46:30;5.13;;;3.20;;
7426;SDS011;3755;59.316;18.092;2024-03-22T07:48:56;3.60;;;2.60;;
7426;SDS011;3755;59.316;18.092;2024-03-22T07:51:26;4.10;;;2.70;;
7426;SDS011;3755;59.316;18.092;2024-03-22T07:53:52;4.20;;;2.87;;
7426;SDS011;3755;59.316;18.092;2024-03-22T07:56:19;4.93;;;2.83;;
7426;SDS011;3755;59.316;18.092;2024-03-22T07:58:45;7.27;;;3.50;;
7426;SDS011;3755;59.316;18.092;2024-03-22T08:01:13;3.10;;;2.73;;
7426;SDS011;3755;59.316;18.092;2024-03-22T08:03:40;6.00;;;3.77;;
7426;SDS011;3755;59.316;18.092;2024-03-22T08:06:08;4.90;;;3.53;;
7426;SDS011;3755;59.316;18.092;2024-03-22T08:08:36;6.73;;;3.43;;
7426;SDS011;3755;59.316;18.092;2024-03-22T08:11:04;5.17;;;3.80;;
7426;SDS011;3755;59.316;18.092;2024-03-22T08:13:31;4.00;;;2.83;;
7426;SDS011;3755;59.316;18.092;2024-03-22T08:16:16;6.47;;;3.10;;
7426;SDS011;3755;59.316;18.092;2024-03-22T08:18:47;5.83;;;3.30;;
7426;SDS011;3755;59.316;18.092;2024-03-22T08:21:15;4.07;;;3.27;;
7426;SDS011;3755;59.316;18.092;2024-03-22T08:26:48;6.30;;;2.90;;
7426;SDS011;3755;59.316;18.092;2024-03-22T08:29:31;5.80;;;3.47;;
7426;SDS011;3755;59.316;18.092;2024-03-22T08:31:58;5.27;;;3.47;;
7426;SDS011;3755;59.316;18.092;2024-03-22T08:34:29;3.33;;;2.63;;
7426;SDS011;3755;59.316;18.092;2024-03-22T08:36:58;5.63;;;2.97;;
7426;SDS011;3755;59.316;18.092;2024-03-22T08:39:42;4.50;;;3.10;;
7426;SDS011;3755;59.316;18.092;2024-03-22T08:45:09;4.03;;;2.70;;
7426;SDS011;3755;59.316;18.092;2024-03-22T08:47:41;4.93;;;2.90;;
7426;SDS011;3755;59.316;18.092;2024-03-22T08:50:09;7.73;;;3.50;;
7426;SDS011;3755;59.316;18.092;2024-03-22T08:52:36;4.20;;;3.00;;
7426;SDS011;3755;59.316;18.092;2024-03-22T08:55:04;8.90;;;3.00;;
7426;SDS011;3755;59.316;18.092;2024-03-22T08:57:47;4.87;;;2.70;;
7426;SDS011;3755;59.316;18.092;2024-03-22T09:00:30;4.67;;;2.50;;
7426;SDS011;3755;59.316;18.092;2024-03-22T09:03:00;3.53;;;2.83;;
7426;SDS011;3755;59.316;18.092;2024-03-22T09:05:30;2.30;;;2.10;;
7426;SDS011;3755;59.316;18.092;2024-03-22T09:08:01;3.20;;;2.63;;
7426;SDS011;3755;59.316;18.092;2024-03-22T09:10:36;4.33;;;2.67;;
7426;SDS011;3755;59.316;18.092;2024-03-22T09:13:36;2.90;;;2.13;;
7426;SDS011;3755;59.316;18.092;2024-03-22T09:16:31;2.97;;;2.53;;
7426;SDS011;3755;59.316;18.092;2024-03-22T09:19:18;4.97;;;2.20;;
7426;SDS011;3755;59.316;18.092;2024-03-22T09:22:01;3.10;;;2.50;;
7426;SDS011;3755;59.316;18.092;2024-03-22T09:24:33;3.13;;;2.43;;
7426;SDS011;3755;59.316;18.092;2024-03-22T09:27:04;3.73;;;2.37;;
7426;SDS011;3755;59.316;18.092;2024-03-22T09:29:34;4.30;;;2.33;;
7426;SDS011;3755;59.316;18.092;2024-03-22T09:32:06;2.53;;;2.20;;
7426;SDS011;3755;59.316;18.092;2024-03-22T09:34:34;2.87;;;1.73;;
7426;SDS011;3755;59.316;18.092;2024-03-22T09:37:01;5.33;;;3.00;;
7426;SDS011;3755;59.316;18.092;2024-03-22T09:39:29;2.40;;;2.20;;
7426;SDS011;3755;59.316;18.092;2024-03-22T09:41:57;3.70;;;2.60;;
7426;SDS011;3755;59.316;18.092;2024-03-22T09:44:26;5.97;;;2.97;;
7426;SDS011;3755;59.316;18.092;2024-03-22T09:46:53;4.60;;;2.40;;
7426;SDS011;3755;59.316;18.092;2024-03-22T09:49:23;5.53;;;2.47;;
7426;SDS011;3755;59.316;18.092;2024-03-22T09:51:51;5.13;;;3.03;;
7426;SDS011;3755;59.316;18.092;2024-03-22T09:54:35;4.90;;;2.93;;
7426;SDS011;3755;59.316;18.092;2024-03-22T09:57:05;4.43;;;3.33;;
7426;SDS011;3755;59.316;18.092;2024-03-22T09:59:35;5.57;;;3.77;;
7426;SDS011;3755;59.316;18.092;2024-03-22T10:02:10;6.23;;;4.20;;
7426;SDS011;3755;59.316;18.092;2024-03-22T10:04:39;6.63;;;3.73;;
7426;SDS011;3755;59.316;18.092;2024-03-22T10:07:07;4.90;;;3.87;;
7426;SDS011;3755;59.316;18.092;2024-03-22T10:09:36;6.17;;;4.20;;
7426;SDS011;3755;59.316;18.092;2024-03-22T10:12:05;7.60;;;3.83;;
7426;SDS011;3755;59.316;18.092;2024-03-22T10:14:33;6.93;;;4.80;;
7426;SDS011;3755;59.316;18.092;2024-03-22T10:17:02;7.47;;;4.13;;
7426;SDS011;3755;59.316;18.092;2024-03-22T10:19:28;7.23;;;4.67;;
7426;SDS011;3755;59.316;18.092;2024-03-22T10:22:04;6.33;;;4.47;;
7426;SDS011;3755;59.316;18.092;2024-03-22T10:24:31;6.30;;;3.37;;
7426;SDS011;3755;59.316;18.092;2024-03-22T10:26:59;6.07;;;4.17;;
7426;SDS011;3755;59.316;18.092;2024-03-22T10:29:25;8.60;;;5.10;;
7426;SDS011;3755;59.316;18.092;2024-03-22T10:31:57;6.10;;;4.63;;
7426;SDS011;3755;59.316;18.092;2024-03-22T10:34:25;6.57;;;4.07;;
7426;SDS011;3755;59.316;18.092;2024-03-22T10:36:55;7.03;;;4.17;;
7426;SDS011;3755;59.316;18.092;2024-03-22T10:42:44;7.80;;;5.13;;
7426;SDS011;3755;59.316;18.092;2024-03-22T10:45:26;6.83;;;4.87;;
7426;SDS011;3755;59.316;18.092;2024-03-22T10:48:14;6.80;;;3.70;;
7426;SDS011;3755;59.316;18.092;2024-03-22T10:51:18;8.03;;;4.67;;
7426;SDS011;3755;59.316;18.092;2024-03-22T10:53:48;8.67;;;3.83;;
7426;SDS011;3755;59.316;18.092;2024-03-22T10:56:35;7.23;;;4.90;;
7426;SDS011;3755;59.316;18.092;2024-03-22T10:59:22;7.77;;;5.10;;
7426;SDS011;3755;59.316;18.092;2024-03-22T11:02:04;14.13;;;5.73;;
7426;SDS011;3755;59.316;18.092;2024-03-22T11:04:53;8.03;;;5.27;;
7426;SDS011;3755;59.316;18.092;2024-03-22T11:07:23;8.53;;;5.47;;
7426;SDS011;3755;59.316;18.092;2024-03-22T11:10:30;9.03;;;5.10;;
7426;SDS011;3755;59.316;18.092;2024-03-22T11:13:38;7.90;;;5.30;;
7426;SDS011;3755;59.316;18.092;2024-03-22T11:16:11;7.73;;;5.17;;
7426;SDS011;3755;59.316;18.092;2024-03-22T11:18:49;10.83;;;4.80;;
7426;SDS011;3755;59.316;18.092;2024-03-22T11:21:38;9.23;;;4.90;;
7426;SDS011;3755;59.316;18.092;2024-03-22T11:24:09;11.23;;;5.30;;
7426;SDS011;3755;59.316;18.092;2024-03-22T11:26:36;9.50;;;4.00;;
7426;SDS011;3755;59.316;18.092;2024-03-22T11:29:04;8.87;;;5.17;;
7426;SDS011;3755;59.316;18.092;2024-03-22T11:31:32;11.23;;;5.30;;
7426;SDS011;3755;59.316;18.092;2024-03-22T11:34:13;6.72;;;4.07;;
7426;SDS011;3755;59.316;18.092;2024-03-22T11:36:50;9.48;;;4.95;;
7426;SDS011;3755;59.316;18.092;2024-03-22T11:39:21;12.03;;;5.40;;
7426;SDS011;3755;59.316;18.092;2024-03-22T11:41:50;8.38;;;5.30;;
7426;SDS011;3755;59.316;18.092;2024-03-22T11:44:39;11.27;;;5.68;;
7426;SDS011;3755;59.316;18.092;2024-03-22T11:47:27;8.57;;;5.32;;
7426;SDS011;3755;59.316;18.092;2024-03-22T11:50:19;8.85;;;5.25;;
7426;SDS011;3755;59.316;18.092;2024-03-22T11:53:16;10.03;;;5.00;;
7426;SDS011;3755;59.316;18.092;2024-03-22T11:55:44;8.52;;;5.00;;
7426;SDS011;3755;59.316;18.092;2024-03-22T11:58:29;8.23;;;5.17;;
7426;SDS011;3755;59.316;18.092;2024-03-22T12:01:04;8.10;;;5.00;;
7426;SDS011;3755;59.316;18.092;2024-03-22T12:03:38;8.07;;;5.10;;
7426;SDS011;3755;59.316;18.092;2024-03-22T12:06:08;7.97;;;4.50;;
7426;SDS011;3755;59.316;18.092;2024-03-22T12:08:45;7.80;;;4.20;;
7426;SDS011;3755;59.316;18.092;2024-03-22T12:11:13;6.93;;;4.45;;
7426;SDS011;3755;59.316;18.092;2024-03-22T12:13:43;8.00;;;4.73;;
7426;SDS011;3755;59.316;18.092;2024-03-22T12:16:14;7.57;;;4.40;;
7426;SDS011;3755;59.316;18.092;2024-03-22T12:18:46;8.47;;;4.70;;
7426;SDS011;3755;59.316;18.092;2024-03-22T12:21:27;7.50;;;4.38;;
7426;SDS011;3755;59.316;18.092;2024-03-22T12:24:00;6.60;;;4.05;;
7426;SDS011;3755;59.316;18.092;2024-03-22T12:26:30;6.95;;;4.20;;
7426;SDS011;3755;59.316;18.092;2024-03-22T12:29:12;6.87;;;4.07;;
7426;SDS011;3755;59.316;18.092;2024-03-22T12:31:50;6.32;;;3.85;;
7426;SDS011;3755;59.316;18.092;2024-03-22T12:34:18;8.10;;;4.53;;
7426;SDS011;3755;59.316;18.092;2024-03-22T12:37:14;7.35;;;4.63;;
7426;SDS011;3755;59.316;18.092;2024-03-22T12:39:47;6.65;;;4.30;;
7426;SDS011;3755;59.316;18.092;2024-03-22T12:42:13;8.43;;;4.25;;
7426;SDS011;3755;59.316;18.092;2024-03-22T12:45:00;7.80;;;4.00;;
7426;SDS011;3755;59.316;18.092;2024-03-22T12:48:07;6.87;;;4.50;;
7426;SDS011;3755;59.316;18.092;2024-03-22T12:50:51;6.70;;;4.25;;
7426;SDS011;3755;59.316;18.092;2024-03-22T12:53:59;6.40;;;4.53;;
7426;SDS011;3755;59.316;18.092;2024-03-22T12:56:29;9.02;;;5.72;;
7426;SDS011;3755;59.316;18.092;2024-03-22T12:58:58;10.10;;;4.40;;
7426;SDS011;3755;59.316;18.092;2024-03-22T13:01:27;7.50;;;4.80;;
7426;SDS011;3755;59.316;18.092;2024-03-22T13:03:55;7.05;;;4.72;;
7426;SDS011;3755;59.316;18.092;2024-03-22T13:06:25;7.82;;;4.13;;
7426;SDS011;3755;59.316;18.092;2024-03-22T13:08:53;6.63;;;4.25;;
7426;SDS011;3755;59.316;18.092;2024-03-22T13:11:49;7.57;;;4.77;;
7426;SDS011;3755;59.316;18.092;2024-03-22T13:15:13;9.25;;;4.45;;
7426;SDS011;3755;59.316;18.092;2024-03-22T13:18:12;7.77;;;4.73;;
7426;SDS011;3755;59.316;18.092;2024-03-22T13:20:41;7.38;;;4.38;;
7426;SDS011;3755;59.316;18.092;2024-03-22T13:23:11;8.93;;;4.97;;
7426;SDS011;3755;59.316;18.092;2024-03-22T13:26:06;7.32;;;4.97;;
7426;SDS011;3755;59.316;18.092;2024-03-22T13:28:47;6.53;;;4.72;;
7426;SDS011;3755;59.316;18.092;2024-03-22T13:31:18;7.80;;;4.55;;
7426;SDS011;3755;59.316;18.092;2024-03-22T13:33:45;6.72;;;4.35;;
7426;SDS011;3755;59.316;18.092;2024-03-22T13:36:14;7.20;;;4.25;;
7426;SDS011;3755;59.316;18.092;2024-03-22T13:38:47;6.60;;;4.05;;
7426;SDS011;3755;59.316;18.092;2024-03-22T13:41:31;5.65;;;3.83;;
7426;SDS011;3755;59.316;18.092;2024-03-22T13:44:15;4.53;;;2.92;;
7426;SDS011;3755;59.316;18.092;2024-03-22T13:46:47;4.70;;;3.60;;
7426;SDS011;3755;59.316;18.092;2024-03-22T13:49:15;7.47;;;3.92;;
7426;SDS011;3755;59.316;18.092;2024-03-22T13:51:58;5.82;;;3.78;;
7426;SDS011;3755;59.316;18.092;2024-03-22T13:54:48;7.45;;;4.43;;
7426;SDS011;3755;59.316;18.092;2024-03-22T13:57:29;5.50;;;3.53;;
7426;SDS011;3755;59.316;18.092;2024-03-22T14:00:11;6.32;;;4.10;;
7426;SDS011;3755;59.316;18.092;2024-03-22T14:02:55;4.47;;;3.42;;
7426;SDS011;3755;59.316;18.092;2024-03-22T14:05:37;4.85;;;3.33;;
7426;SDS011;3755;59.316;18.092;2024-03-22T14:08:19;4.80;;;2.90;;
7426;SDS011;3755;59.316;18.092;2024-03-22T14:10:58;5.30;;;2.83;;
7426;SDS011;3755;59.316;18.092;2024-03-22T14:14:03;5.40;;;2.78;;
7426;SDS011;3755;59.316;18.092;2024-03-22T14:16:47;4.90;;;2.80;;
7426;SDS011;3755;59.316;18.092;2024-03-22T14:19:30;5.57;;;3.10;;
7426;SDS011;3755;59.316;18.092;2024-03-22T14:22:12;5.22;;;2.65;;
7426;SDS011;3755;59.316;18.092;2024-03-22T14:24:54;5.72;;;2.30;;
7426;SDS011;3755;59.316;18.092;2024-03-22T14:27:30;5.60;;;3.03;;
7426;SDS011;3755;59.316;18.092;2024-03-22T14:29:57;4.15;;;1.90;;
7426;SDS011;3755;59.316;18.092;2024-03-22T14:32:45;3.60;;;2.05;;
7426;SDS011;3755;59.316;18.092;2024-03-22T14:35:31;6.00;;;2.10;;
7426;SDS011;3755;59.316;18.092;2024-03-22T14:38:12;0.77;;;0.75;;
7426;SDS011;3755;59.316;18.092;2024-03-22T14:41:01;4.25;;;1.33;;
7426;SDS011;3755;59.316;18.092;2024-03-22T14:50:20;3.58;;;1.63;;
7426;SDS011;3755;59.316;18.092;2024-03-22T14:53:07;6.40;;;1.50;;
7426;SDS011;3755;59.316;18.092;2024-03-22T14:55:52;4.18;;;1.90;;
7426;SDS011;3755;59.316;18.092;2024-03-22T14:58:40;4.38;;;1.70;;
7426;SDS011;3755;59.316;18.092;2024-03-22T15:01:10;3.38;;;1.67;;
7426;SDS011;3755;59.316;18.092;2024-03-22T15:03:51;4.80;;;2.63;;
7426;SDS011;3755;59.316;18.092;2024-03-22T15:06:54;4.07;;;1.75;;
7426;SDS011;3755;59.316;18.092;2024-03-22T15:09:46;4.10;;;1.70;;
7426;SDS011;3755;59.316;18.092;2024-03-22T15:12:13;6.88;;;2.22;;
7426;SDS011;3755;59.316;18.092;2024-03-22T15:14:55;6.00;;;2.13;;
7426;SDS011;3755;59.316;18.092;2024-03-22T15:18:14;5.75;;;2.10;;
7426;SDS011;3755;59.316;18.092;2024-03-22T15:20:43;7.95;;;1.65;;
7426;SDS011;3755;59.316;18.092;2024-03-22T15:23:23;6.03;;;1.70;;
7426;SDS011;3755;59.316;18.092;2024-03-22T15:26:07;7.00;;;2.45;;
7426;SDS011;3755;59.316;18.092;2024-03-22T15:28:48;8.50;;;2.28;;
7426;SDS011;3755;59.316;18.092;2024-03-22T15:31:15;10.07;;;2.40;;
7426;SDS011;3755;59.316;18.092;2024-03-22T15:33:56;7.63;;;2.17;;
7426;SDS011;3755;59.316;18.092;2024-03-22T15:36:22;6.63;;;2.38;;
7426;SDS011;3755;59.316;18.092;2024-03-22T15:38:56;7.78;;;2.45;;
7426;SDS011;3755;59.316;18.092;2024-03-22T15:42:02;5.57;;;2.10;;
7426;SDS011;3755;59.316;18.092;2024-03-22T15:44:32;6.70;;;1.65;;